sensor_id;sensor_type;location;lat;lon;timestamp;temperature;humidity
33564;DHT22;19894;48.452;11.494;2022-10-14T00:00:32;20.00;56.30
33564;DHT22;19894;48.452;11.494;2022-10-14T00:02:58;20.00;56.20
33564;DHT22;19894;48.452;11.494;2022-10-14T00:05:23;20.00;56.20
33564;DHT22;19894;48.452;11.494;2022-10-14T00:07:49;20.00;56.20
33564;DHT22;19894;48.452;11.494;2022-10-14T00:10:15;20.00;56.30
33564;DHT22;19894;48.452;11.494;2022-10-14T00:12:40;20.00;56.30
33564;DHT22;19894;48.452;11.494;2022-10-14T00:15:07;20.00;56.30
33564;DHT22;19894;48.452;11.494;2022-10-14T00:17:33;20.00;56.50
33564;DHT22;19894;48.452;11.494;2022-10-14T00:19:59;20.00;56.50
33564;DHT22;19894;48.452;11.494;2022-10-14T00:22:24;20.00;56.70
33564;DHT22;19894;48.452;11.494;2022-10-14T00:24:50;20.00;57.20
33564;DHT22;19894;48.452;11.494;2022-10-14T00:27:16;20.00;56.70
33564;DHT22;19894;48.452;11.494;2022-10-14T00:29:41;20.00;56.70
33564;DHT22;19894;48.452;11.494;2022-10-14T00:32:07;20.00;56.80
33564;DHT22;19894;48.452;11.494;2022-10-14T00:34:32;20.10;56.80
33564;DHT22;19894;48.452;11.494;2022-10-14T00:36:58;20.00;56.80
33564;DHT22;19894;48.452;11.494;2022-10-14T00:39:24;20.10;56.90
33564;DHT22;19894;48.452;11.494;2022-10-14T00:41:49;20.10;56.90
33564;DHT22;19894;48.452;11.494;2022-10-14T00:46:45;20.10;56.90
33564;DHT22;19894;48.452;11.494;2022-10-14T00:49:26;20.10;56.70
33564;DHT22;19894;48.452;11.494;2022-10-14T00:51:59;20.10;56.70
33564;DHT22;19894;48.452;11.494;2022-10-14T00:54:29;20.10;56.80
33564;DHT22;19894;48.452;11.494;2022-10-14T00:56:56;20.10;56.70
33564;DHT22;19894;48.452;11.494;2022-10-14T00:59:21;20.00;57.10
33564;DHT22;19894;48.452;11.494;2022-10-14T01:01:47;20.10;56.60
33564;DHT22;19894;48.452;11.494;2022-10-14T01:04:13;20.10;56.60
33564;DHT22;19894;48.452;11.494;2022-10-14T01:10:07;20.00;56.60
33564;DHT22;19894;48.452;11.494;2022-10-14T01:28:34;20.00;56.70
33564;DHT22;19894;48.452;11.494;2022-10-14T01:31:09;20.00;56.80
33564;DHT22;19894;48.452;11.494;2022-10-14T01:33:38;20.00;56.80
33564;DHT22;19894;48.452;11.494;2022-10-14T01:39:09;20.00;56.80
33564;DHT22;19894;48.452;11.494;2022-10-14T01:41:47;20.00;56.90
33564;DHT22;19894;48.452;11.494;2022-10-14T01:44:17;20.00;56.90
33564;DHT22;19894;48.452;11.494;2022-10-14T01:46:49;20.10;56.90
33564;DHT22;19894;48.452;11.494;2022-10-14T01:49:30;20.10;56.90
33564;DHT22;19894;48.452;11.494;2022-10-14T01:52:02;20.10;56.80
33564;DHT22;19894;48.452;11.494;2022-10-14T01:54:35;20.10;56.80
33564;DHT22;19894;48.452;11.494;2022-10-14T01:57:06;20.00;56.70
33564;DHT22;19894;48.452;11.494;2022-10-14T01:59:34;20.10;56.70
33564;DHT22;19894;48.452;11.494;2022-10-14T02:02:00;20.10;56.70
33564;DHT22;19894;48.452;11.494;2022-10-14T02:04:26;20.10;56.70
33564;DHT22;19894;48.452;11.494;2022-10-14T02:07:03;20.10;56.70
33564;DHT22;19894;48.452;11.494;2022-10-14T02:17:16;20.00;56.50
33564;DHT22;19894;48.452;11.494;2022-10-14T02:19:59;20.00;56.50
33564;DHT22;19894;48.452;11.494;2022-10-14T02:22:34;20.00;56.50
33564;DHT22;19894;48.452;11.494;2022-10-14T02:25:27;20.00;56.50
33564;DHT22;19894;48.452;11.494;2022-10-14T02:27:55;20.00;56.50
33564;DHT22;19894;48.452;11.494;2022-10-14T02:30:22;20.00;56.60
33564;DHT22;19894;48.452;11.494;2022-10-14T02:32:48;20.00;56.60
33564;DHT22;19894;48.452;11.494;2022-10-14T02:35:16;20.00;56.80
33564;DHT22;19894;48.452;11.494;2022-10-14T02:37:45;20.00;56.80
33564;DHT22;19894;48.452;11.494;2022-10-14T02:40:15;20.00;56.80
33564;DHT22;19894;48.452;11.494;2022-10-14T02:42:42;20.00;56.80
33564;DHT22;19894;48.452;11.494;2022-10-14T02:45:09;20.00;56.80
33564;DHT22;19894;48.452;11.494;2022-10-14T02:47:35;20.00;56.80
33564;DHT22;19894;48.452;11.494;2022-10-14T02:50:00;20.00;56.80
33564;DHT22;19894;48.452;11.494;2022-10-14T02:52:26;20.10;56.80
33564;DHT22;19894;48.452;11.494;2022-10-14T02:54:52;20.10;56.80
33564;DHT22;19894;48.452;11.494;2022-10-14T02:57:17;20.10;56.90
33564;DHT22;19894;48.452;11.494;2022-10-14T02:59:43;20.10;56.90
33564;DHT22;19894;48.452;11.494;2022-10-14T03:02:08;20.10;56.90
33564;DHT22;19894;48.452;11.494;2022-10-14T03:04:34;20.10;56.90
33564;DHT22;19894;48.452;11.494;2022-10-14T03:07:00;20.10;56.90
33564;DHT22;19894;48.452;11.494;2022-10-14T03:09:26;20.10;56.90
33564;DHT22;19894;48.452;11.494;2022-10-14T03:11:51;20.10;56.90
33564;DHT22;19894;48.452;11.494;2022-10-14T03:14:17;20.10;56.90
33564;DHT22;19894;48.452;11.494;2022-10-14T03:16:43;20.10;57.00
33564;DHT22;19894;48.452;11.494;2022-10-14T03:19:08;20.10;56.90
33564;DHT22;19894;48.452;11.494;2022-10-14T03:21:34;20.10;56.90
33564;DHT22;19894;48.452;11.494;2022-10-14T03:23:59;20.10;56.90
33564;DHT22;19894;48.452;11.494;2022-10-14T03:26:26;20.10;56.90
33564;DHT22;19894;48.452;11.494;2022-10-14T03:28:52;20.10;56.90
33564;DHT22;19894;48.452;11.494;2022-10-14T03:31:18;20.10;56.90
33564;DHT22;19894;48.452;11.494;2022-10-14T03:33:43;20.10;56.90
33564;DHT22;19894;48.452;11.494;2022-10-14T03:36:09;20.10;56.80
33564;DHT22;19894;48.452;11.494;2022-10-14T03:38:35;20.10;56.70
33564;DHT22;19894;48.452;11.494;2022-10-14T03:41:00;20.10;56.80
33564;DHT22;19894;48.452;11.494;2022-10-14T03:43:26;20.10;56.80
33564;DHT22;19894;48.452;11.494;2022-10-14T03:45:52;20.10;56.80
33564;DHT22;19894;48.452;11.494;2022-10-14T03:48:18;20.10;56.70
33564;DHT22;19894;48.452;11.494;2022-10-14T03:50:46;20.10;56.70
33564;DHT22;19894;48.452;11.494;2022-10-14T03:53:11;20.10;56.70
33564;DHT22;19894;48.452;11.494;2022-10-14T03:55:37;20.10;56.80
33564;DHT22;19894;48.452;11.494;2022-10-14T03:58:03;20.10;56.70
33564;DHT22;19894;48.452;11.494;2022-10-14T04:00:29;20.00;56.60
33564;DHT22;19894;48.452;11.494;2022-10-14T04:02:55;20.00;56.60
33564;DHT22;19894;48.452;11.494;2022-10-14T04:05:20;20.00;56.60
33564;DHT22;19894;48.452;11.494;2022-10-14T04:07:46;20.00;56.50
33564;DHT22;19894;48.452;11.494;2022-10-14T04:10:11;20.00;56.60
33564;DHT22;19894;48.452;11.494;2022-10-14T04:12:37;20.00;56.60
33564;DHT22;19894;48.452;11.494;2022-10-14T04:15:06;20.00;56.60
33564;DHT22;19894;48.452;11.494;2022-10-14T04:17:31;20.00;56.60
33564;DHT22;19894;48.452;11.494;2022-10-14T04:19:57;20.00;56.60
33564;DHT22;19894;48.452;11.494;2022-10-14T04:22:23;20.00;56.60
33564;DHT22;19894;48.452;11.494;2022-10-14T04:24:49;20.00;56.70
33564;DHT22;19894;48.452;11.494;2022-10-14T04:27:15;20.00;56.80
33564;DHT22;19894;48.452;11.494;2022-10-14T04:29:40;20.00;56.80
33564;DHT22;19894;48.452;11.494;2022-10-14T04:32:06;20.00;56.70
33564;DHT22;19894;48.452;11.494;2022-10-14T04:34:32;20.00;56.80
33564;DHT22;19894;48.452;11.494;2022-10-14T04:36:57;20.00;56.80
33564;DHT22;19894;48.452;11.494;2022-10-14T04:39:23;20.10;56.70
33564;DHT22;19894;48.452;11.494;2022-10-14T04:41:48;20.10;56.70
33564;DHT22;19894;48.452;11.494;2022-10-14T04:44:14;20.10;56.70
33564;DHT22;19894;48.452;11.494;2022-10-14T04:46:39;20.10;56.70
33564;DHT22;19894;48.452;11.494;2022-10-14T04:49:05;20.10;56.60
33564;DHT22;19894;48.452;11.494;2022-10-14T04:51:30;20.10;56.60
33564;DHT22;19894;48.452;11.494;2022-10-14T04:53:56;20.10;56.60
33564;DHT22;19894;48.452;11.494;2022-10-14T04:56:22;20.10;56.60
33564;DHT22;19894;48.452;11.494;2022-10-14T04:58:47;20.10;56.60
33564;DHT22;19894;48.452;11.494;2022-10-14T05:01:13;20.00;56.50
33564;DHT22;19894;48.452;11.494;2022-10-14T05:03:39;20.10;56.50
33564;DHT22;19894;48.452;11.494;2022-10-14T05:06:05;20.00;56.40
33564;DHT22;19894;48.452;11.494;2022-10-14T05:08:30;20.00;56.30
33564;DHT22;19894;48.452;11.494;2022-10-14T05:10:56;20.00;56.30
33564;DHT22;19894;48.452;11.494;2022-10-14T05:13:21;20.00;56.30
33564;DHT22;19894;48.452;11.494;2022-10-14T05:15:47;20.00;56.30
33564;DHT22;19894;48.452;11.494;2022-10-14T05:18:13;20.00;56.40
33564;DHT22;19894;48.452;11.494;2022-10-14T05:20:38;20.00;56.40
33564;DHT22;19894;48.452;11.494;2022-10-14T05:23:05;20.00;56.40
33564;DHT22;19894;48.452;11.494;2022-10-14T05:25:30;20.00;56.40
33564;DHT22;19894;48.452;11.494;2022-10-14T05:27:56;20.00;56.40
33564;DHT22;19894;48.452;11.494;2022-10-14T05:30:21;20.00;56.50
33564;DHT22;19894;48.452;11.494;2022-10-14T05:32:48;20.00;56.50
33564;DHT22;19894;48.452;11.494;2022-10-14T05:35:13;20.00;56.50
33564;DHT22;19894;48.452;11.494;2022-10-14T05:37:39;20.00;56.50
33564;DHT22;19894;48.452;11.494;2022-10-14T05:40:06;20.00;56.50
33564;DHT22;19894;48.452;11.494;2022-10-14T05:42:32;20.00;56.50
33564;DHT22;19894;48.452;11.494;2022-10-14T05:44:58;20.00;56.50
33564;DHT22;19894;48.452;11.494;2022-10-14T05:47:23;20.10;56.60
33564;DHT22;19894;48.452;11.494;2022-10-14T05:49:49;20.10;56.60
33564;DHT22;19894;48.452;11.494;2022-10-14T05:52:15;20.10;56.60
33564;DHT22;19894;48.452;11.494;2022-10-14T05:54:40;20.10;56.60
33564;DHT22;19894;48.452;11.494;2022-10-14T05:57:06;20.10;56.60
33564;DHT22;19894;48.452;11.494;2022-10-14T05:59:32;20.00;56.50
33564;DHT22;19894;48.452;11.494;2022-10-14T06:01:59;20.00;56.40
33564;DHT22;19894;48.452;11.494;2022-10-14T06:04:25;20.00;56.40
33564;DHT22;19894;48.452;11.494;2022-10-14T06:06:51;20.10;56.40
33564;DHT22;19894;48.452;11.494;2022-10-14T06:09:17;20.00;56.40
33564;DHT22;19894;48.452;11.494;2022-10-14T06:11:43;20.00;56.30
33564;DHT22;19894;48.452;11.494;2022-10-14T06:14:09;20.00;56.30
33564;DHT22;19894;48.452;11.494;2022-10-14T06:16:35;20.00;56.40
33564;DHT22;19894;48.452;11.494;2022-10-14T06:19:00;20.00;56.40
33564;DHT22;19894;48.452;11.494;2022-10-14T06:21:26;20.10;56.50
33564;DHT22;19894;48.452;11.494;2022-10-14T06:23:52;20.00;56.40
33564;DHT22;19894;48.452;11.494;2022-10-14T06:26:17;20.00;56.40
33564;DHT22;19894;48.452;11.494;2022-10-14T06:28:43;20.00;56.40
33564;DHT22;19894;48.452;11.494;2022-10-14T06:31:09;20.00;56.40
33564;DHT22;19894;48.452;11.494;2022-10-14T06:33:35;20.00;56.50
33564;DHT22;19894;48.452;11.494;2022-10-14T06:36:02;20.10;56.60
33564;DHT22;19894;48.452;11.494;2022-10-14T06:38:27;20.00;56.60
33564;DHT22;19894;48.452;11.494;2022-10-14T06:40:53;20.00;56.60
33564;DHT22;19894;48.452;11.494;2022-10-14T06:43:20;20.00;56.60
33564;DHT22;19894;48.452;11.494;2022-10-14T06:45:47;20.00;56.70
33564;DHT22;19894;48.452;11.494;2022-10-14T06:48:13;20.00;56.70
33564;DHT22;19894;48.452;11.494;2022-10-14T06:50:39;20.10;56.80
33564;DHT22;19894;48.452;11.494;2022-10-14T06:53:05;20.10;56.80
33564;DHT22;19894;48.452;11.494;2022-10-14T06:55:30;20.00;56.80
33564;DHT22;19894;48.452;11.494;2022-10-14T06:57:56;20.10;56.90
33564;DHT22;19894;48.452;11.494;2022-10-14T07:00:22;20.10;56.90
33564;DHT22;19894;48.452;11.494;2022-10-14T07:02:48;20.10;56.80
33564;DHT22;19894;48.452;11.494;2022-10-14T07:05:14;20.00;56.80
33564;DHT22;19894;48.452;11.494;2022-10-14T07:07:40;20.00;56.70
33564;DHT22;19894;48.452;11.494;2022-10-14T07:10:06;20.10;56.70
33564;DHT22;19894;48.452;11.494;2022-10-14T07:12:32;20.10;56.60
33564;DHT22;19894;48.452;11.494;2022-10-14T07:14:57;20.00;56.70
33564;DHT22;19894;48.452;11.494;2022-10-14T07:17:23;20.10;56.70
33564;DHT22;19894;48.452;11.494;2022-10-14T07:19:49;20.00;56.60
33564;DHT22;19894;48.452;11.494;2022-10-14T07:22:15;20.00;56.70
33564;DHT22;19894;48.452;11.494;2022-10-14T07:24:42;20.00;56.70
33564;DHT22;19894;48.452;11.494;2022-10-14T07:27:08;20.00;56.70
33564;DHT22;19894;48.452;11.494;2022-10-14T07:29:34;20.00;56.80
33564;DHT22;19894;48.452;11.494;2022-10-14T07:32:00;20.00;56.70
33564;DHT22;19894;48.452;11.494;2022-10-14T07:34:26;20.00;56.70
33564;DHT22;19894;48.452;11.494;2022-10-14T07:36:52;20.00;56.80
33564;DHT22;19894;48.452;11.494;2022-10-14T07:39:17;20.00;56.90
33564;DHT22;19894;48.452;11.494;2022-10-14T07:41:43;20.00;56.80
33564;DHT22;19894;48.452;11.494;2022-10-14T07:44:10;20.00;56.90
33564;DHT22;19894;48.452;11.494;2022-10-14T07:46:39;20.00;57.10
33564;DHT22;19894;48.452;11.494;2022-10-14T07:49:23;20.00;57.20
33564;DHT22;19894;48.452;11.494;2022-10-14T07:51:49;20.00;57.20
33564;DHT22;19894;48.452;11.494;2022-10-14T07:54:22;20.00;57.90
33564;DHT22;19894;48.452;11.494;2022-10-14T07:56:48;20.00;57.30
33564;DHT22;19894;48.452;11.494;2022-10-14T07:59:14;20.10;57.50
33564;DHT22;19894;48.452;11.494;2022-10-14T08:01:40;20.10;57.50
33564;DHT22;19894;48.452;11.494;2022-10-14T08:04:08;20.10;57.50
33564;DHT22;19894;48.452;11.494;2022-10-14T08:06:34;20.10;57.50
33564;DHT22;19894;48.452;11.494;2022-10-14T08:09:00;20.10;57.60
33564;DHT22;19894;48.452;11.494;2022-10-14T08:11:27;20.10;57.50
33564;DHT22;19894;48.452;11.494;2022-10-14T08:13:53;20.10;57.50
33564;DHT22;19894;48.452;11.494;2022-10-14T08:16:22;20.00;57.40
33564;DHT22;19894;48.452;11.494;2022-10-14T08:18:48;20.10;57.50
33564;DHT22;19894;48.452;11.494;2022-10-14T08:21:15;20.10;57.40
33564;DHT22;19894;48.452;11.494;2022-10-14T08:23:41;20.10;57.40
33564;DHT22;19894;48.452;11.494;2022-10-14T08:26:26;20.00;57.30
33564;DHT22;19894;48.452;11.494;2022-10-14T08:28:52;20.10;57.40
33564;DHT22;19894;48.452;11.494;2022-10-14T08:31:19;20.00;57.30
33564;DHT22;19894;48.452;11.494;2022-10-14T08:33:45;20.00;57.40
33564;DHT22;19894;48.452;11.494;2022-10-14T08:36:11;20.00;57.30
33564;DHT22;19894;48.452;11.494;2022-10-14T08:38:37;20.00;57.30
33564;DHT22;19894;48.452;11.494;2022-10-14T08:46:37;20.00;57.50
33564;DHT22;19894;48.452;11.494;2022-10-14T08:49:31;20.00;57.70
33564;DHT22;19894;48.452;11.494;2022-10-14T08:52:00;20.00;57.90
33564;DHT22;19894;48.452;11.494;2022-10-14T08:54:37;20.00;57.80
33564;DHT22;19894;48.452;11.494;2022-10-14T08:57:05;20.00;57.90
33564;DHT22;19894;48.452;11.494;2022-10-14T08:59:39;20.00;58.10
33564;DHT22;19894;48.452;11.494;2022-10-14T09:02:33;20.10;58.30
33564;DHT22;19894;48.452;11.494;2022-10-14T09:05:03;20.00;58.30
33564;DHT22;19894;48.452;11.494;2022-10-14T09:07:31;20.10;58.30
33564;DHT22;19894;48.452;11.494;2022-10-14T09:10:05;20.10;58.20
33564;DHT22;19894;48.452;11.494;2022-10-14T09:12:33;20.10;58.20
33564;DHT22;19894;48.452;11.494;2022-10-14T09:18:04;20.10;58.40
33564;DHT22;19894;48.452;11.494;2022-10-14T09:20:29;20.10;58.30
33564;DHT22;19894;48.452;11.494;2022-10-14T09:25:33;20.10;58.20
33564;DHT22;19894;48.452;11.494;2022-10-14T09:27:59;20.10;58.20
33564;DHT22;19894;48.452;11.494;2022-10-14T09:30:34;20.00;58.10
33564;DHT22;19894;48.452;11.494;2022-10-14T09:33:01;20.00;58.10
33564;DHT22;19894;48.452;11.494;2022-10-14T09:35:32;20.10;58.20
33564;DHT22;19894;48.452;11.494;2022-10-14T09:37:59;20.10;58.10
33564;DHT22;19894;48.452;11.494;2022-10-14T09:45:59;20.10;58.10
33564;DHT22;19894;48.452;11.494;2022-10-14T09:48:48;20.00;58.10
33564;DHT22;19894;48.452;11.494;2022-10-14T09:51:25;20.00;58.00
33564;DHT22;19894;48.452;11.494;2022-10-14T09:53:57;20.00;58.20
33564;DHT22;19894;48.452;11.494;2022-10-14T09:56:31;20.00;58.20
33564;DHT22;19894;48.452;11.494;2022-10-14T09:59:00;20.00;58.40
33564;DHT22;19894;48.452;11.494;2022-10-14T10:01:40;20.00;58.40
33564;DHT22;19894;48.452;11.494;2022-10-14T10:06:58;20.00;58.40
33564;DHT22;19894;48.452;11.494;2022-10-14T10:09:24;20.10;58.50
33564;DHT22;19894;48.452;11.494;2022-10-14T10:11:50;20.00;58.40
33564;DHT22;19894;48.452;11.494;2022-10-14T10:16:45;20.00;58.30
33564;DHT22;19894;48.452;11.494;2022-10-14T10:21:54;20.10;58.30
33564;DHT22;19894;48.452;11.494;2022-10-14T10:24:38;20.10;58.20
33564;DHT22;19894;48.452;11.494;2022-10-14T10:27:28;20.10;58.10
33564;DHT22;19894;48.452;11.494;2022-10-14T10:29:54;20.10;58.00
33564;DHT22;19894;48.452;11.494;2022-10-14T10:32:37;20.10;58.00
33564;DHT22;19894;48.452;11.494;2022-10-14T10:38:13;20.10;57.80
33564;DHT22;19894;48.452;11.494;2022-10-14T10:49:15;20.00;57.70
33564;DHT22;19894;48.452;11.494;2022-10-14T10:56:57;20.00;57.50
33564;DHT22;19894;48.452;11.494;2022-10-14T10:59:42;20.00;57.50
33564;DHT22;19894;48.452;11.494;2022-10-14T11:07:34;20.00;57.60
33564;DHT22;19894;48.452;11.494;2022-10-14T11:13:46;20.00;57.50
33564;DHT22;19894;48.452;11.494;2022-10-14T11:19:16;20.00;57.30
33564;DHT22;19894;48.452;11.494;2022-10-14T11:22:04;20.00;57.30
33564;DHT22;19894;48.452;11.494;2022-10-14T11:41:17;20.00;56.90
33564;DHT22;19894;48.452;11.494;2022-10-14T11:46:48;20.00;56.80
33564;DHT22;19894;48.452;11.494;2022-10-14T11:49:24;20.00;57.30
33564;DHT22;19894;48.452;11.494;2022-10-14T11:52:16;20.00;56.80
33564;DHT22;19894;48.452;11.494;2022-10-14T11:54:51;20.00;56.80
33564;DHT22;19894;48.452;11.494;2022-10-14T11:57:24;20.00;56.80
33564;DHT22;19894;48.452;11.494;2022-10-14T12:00:00;20.00;56.80
33564;DHT22;19894;48.452;11.494;2022-10-14T12:03:00;20.00;56.80
33564;DHT22;19894;48.452;11.494;2022-10-14T12:05:36;20.00;56.80
33564;DHT22;19894;48.452;11.494;2022-10-14T12:08:30;20.00;56.70
33564;DHT22;19894;48.452;11.494;2022-10-14T12:11:43;20.00;56.70
33564;DHT22;19894;48.452;11.494;2022-10-14T12:13:53;20.00;56.70
33564;DHT22;19894;48.452;11.494;2022-10-14T12:16:22;20.00;56.60
33564;DHT22;19894;48.452;11.494;2022-10-14T12:18:53;20.00;56.70
33564;DHT22;19894;48.452;11.494;2022-10-14T12:21:30;20.00;57.00
33564;DHT22;19894;48.452;11.494;2022-10-14T12:24:18;20.00;56.60
33564;DHT22;19894;48.452;11.494;2022-10-14T12:29:21;20.00;56.60
33564;DHT22;19894;48.452;11.494;2022-10-14T12:32:07;20.10;56.60
33564;DHT22;19894;48.452;11.494;2022-10-14T12:34:37;20.10;56.60
33564;DHT22;19894;48.452;11.494;2022-10-14T12:42:49;20.10;56.60
33564;DHT22;19894;48.452;11.494;2022-10-14T12:45:22;20.10;56.60
33564;DHT22;19894;48.452;11.494;2022-10-14T12:50:30;20.10;56.60
33564;DHT22;19894;48.452;11.494;2022-10-14T12:52:59;20.00;56.50
33564;DHT22;19894;48.452;11.494;2022-10-14T12:55:28;20.00;56.50
33564;DHT22;19894;48.452;11.494;2022-10-14T12:58:00;20.00;56.50
33564;DHT22;19894;48.452;11.494;2022-10-14T13:00:38;20.00;56.50
33564;DHT22;19894;48.452;11.494;2022-10-14T13:03:16;20.00;56.60
33564;DHT22;19894;48.452;11.494;2022-10-14T13:05:43;20.00;56.50
33564;DHT22;19894;48.452;11.494;2022-10-14T13:18:57;20.00;56.50
33564;DHT22;19894;48.452;11.494;2022-10-14T13:24:11;20.00;56.40
33564;DHT22;19894;48.452;11.494;2022-10-14T13:26:47;20.00;56.40
33564;DHT22;19894;48.452;11.494;2022-10-14T13:40:04;20.00;56.30
33564;DHT22;19894;48.452;11.494;2022-10-14T13:42:35;20.00;56.30
33564;DHT22;19894;48.452;11.494;2022-10-14T13:45:13;20.10;56.30
33564;DHT22;19894;48.452;11.494;2022-10-14T13:47:47;20.10;56.30
33564;DHT22;19894;48.452;11.494;2022-10-14T13:50:17;20.00;56.30
33564;DHT22;19894;48.452;11.494;2022-10-14T13:52:53;20.10;56.30
33564;DHT22;19894;48.452;11.494;2022-10-14T13:55:21;20.00;56.30
33564;DHT22;19894;48.452;11.494;2022-10-14T14:00:36;20.00;56.30
33564;DHT22;19894;48.452;11.494;2022-10-14T14:03:16;20.00;56.30
33564;DHT22;19894;48.452;11.494;2022-10-14T14:05:44;20.00;56.30
33564;DHT22;19894;48.452;11.494;2022-10-14T14:08:31;20.00;56.30
33564;DHT22;19894;48.452;11.494;2022-10-14T14:11:00;20.00;56.30
33564;DHT22;19894;48.452;11.494;2022-10-14T14:13:31;20.00;56.30
33564;DHT22;19894;48.452;11.494;2022-10-14T14:15:57;20.00;56.30
33564;DHT22;19894;48.452;11.494;2022-10-14T14:20:58;20.00;56.30
33564;DHT22;19894;48.452;11.494;2022-10-14T14:23:24;20.00;56.30
33564;DHT22;19894;48.452;11.494;2022-10-14T14:25:50;20.00;56.40
33564;DHT22;19894;48.452;11.494;2022-10-14T14:28:17;20.00;56.40
33564;DHT22;19894;48.452;11.494;2022-10-14T14:30:49;20.00;56.40
33564;DHT22;19894;48.452;11.494;2022-10-14T14:33:18;20.00;56.50
33564;DHT22;19894;48.452;11.494;2022-10-14T14:35:59;20.00;56.50
33564;DHT22;19894;48.452;11.494;2022-10-14T14:38:31;20.00;56.60
33564;DHT22;19894;48.452;11.494;2022-10-14T14:43:37;20.10;56.90
33564;DHT22;19894;48.452;11.494;2022-10-14T14:46:03;20.10;56.90
33564;DHT22;19894;48.452;11.494;2022-10-14T14:48:30;20.10;57.00
33564;DHT22;19894;48.452;11.494;2022-10-14T14:50:58;20.10;57.20
33564;DHT22;19894;48.452;11.494;2022-10-14T14:53:25;20.10;57.20
33564;DHT22;19894;48.452;11.494;2022-10-14T14:56:05;20.10;57.20
33564;DHT22;19894;48.452;11.494;2022-10-14T14:58:45;20.10;57.10
33564;DHT22;19894;48.452;11.494;2022-10-14T15:01:29;20.10;57.20
33564;DHT22;19894;48.452;11.494;2022-10-14T15:03:58;20.10;57.30
33564;DHT22;19894;48.452;11.494;2022-10-14T15:06:25;20.00;57.20
33564;DHT22;19894;48.452;11.494;2022-10-14T15:08:53;20.10;57.30
33564;DHT22;19894;48.452;11.494;2022-10-14T15:11:20;20.10;57.40
33564;DHT22;19894;48.452;11.494;2022-10-14T15:13:52;20.00;57.30
33564;DHT22;19894;48.452;11.494;2022-10-14T15:19:12;20.00;57.50
33564;DHT22;19894;48.452;11.494;2022-10-14T15:21:38;20.00;57.60
33564;DHT22;19894;48.452;11.494;2022-10-14T15:24:13;20.00;57.60
33564;DHT22;19894;48.452;11.494;2022-10-14T15:26:39;20.00;57.70
33564;DHT22;19894;48.452;11.494;2022-10-14T15:31:39;20.00;57.90
33564;DHT22;19894;48.452;11.494;2022-10-14T15:34:14;20.00;58.50
33564;DHT22;19894;48.452;11.494;2022-10-14T15:36:40;20.10;58.20
33564;DHT22;19894;48.452;11.494;2022-10-14T15:39:08;20.00;58.20
33564;DHT22;19894;48.452;11.494;2022-10-14T15:41:36;20.00;58.80
33564;DHT22;19894;48.452;11.494;2022-10-14T15:44:03;20.10;58.40
33564;DHT22;19894;48.452;11.494;2022-10-14T15:46:28;20.00;58.40
33564;DHT22;19894;48.452;11.494;2022-10-14T15:49:15;20.10;58.50
33564;DHT22;19894;48.452;11.494;2022-10-14T15:51:42;20.10;58.60
33564;DHT22;19894;48.452;11.494;2022-10-14T15:54:10;20.10;58.50
33564;DHT22;19894;48.452;11.494;2022-10-14T15:56:37;20.10;58.60
33564;DHT22;19894;48.452;11.494;2022-10-14T15:59:04;20.10;58.50
33564;DHT22;19894;48.452;11.494;2022-10-14T16:01:31;20.10;58.50
33564;DHT22;19894;48.452;11.494;2022-10-14T16:03:58;20.10;58.40
33564;DHT22;19894;48.452;11.494;2022-10-14T16:06:24;20.10;58.50
33564;DHT22;19894;48.452;11.494;2022-10-14T16:08:51;20.10;58.40
33564;DHT22;19894;48.452;11.494;2022-10-14T16:11:27;20.00;58.30
33564;DHT22;19894;48.452;11.494;2022-10-14T16:13:53;20.00;58.40
33564;DHT22;19894;48.452;11.494;2022-10-14T16:16:30;20.00;58.40
33564;DHT22;19894;48.452;11.494;2022-10-14T16:18:56;20.10;58.50
33564;DHT22;19894;48.452;11.494;2022-10-14T16:21:22;20.00;58.50
33564;DHT22;19894;48.452;11.494;2022-10-14T16:23:48;20.10;58.50
33564;DHT22;19894;48.452;11.494;2022-10-14T16:26:16;20.10;58.50
33564;DHT22;19894;48.452;11.494;2022-10-14T16:28:42;20.10;58.60
33564;DHT22;19894;48.452;11.494;2022-10-14T16:31:11;20.00;58.50
33564;DHT22;19894;48.452;11.494;2022-10-14T16:33:38;20.10;58.60
33564;DHT22;19894;48.452;11.494;2022-10-14T16:36:03;20.00;58.40
33564;DHT22;19894;48.452;11.494;2022-10-14T16:38:32;20.10;58.80
33564;DHT22;19894;48.452;11.494;2022-10-14T16:40:59;20.00;58.70
33564;DHT22;19894;48.452;11.494;2022-10-14T16:43:26;20.00;58.90
33564;DHT22;19894;48.452;11.494;2022-10-14T16:45:52;20.10;58.80
33564;DHT22;19894;48.452;11.494;2022-10-14T16:48:18;20.10;58.80
33564;DHT22;19894;48.452;11.494;2022-10-14T16:50:51;20.10;58.90
33564;DHT22;19894;48.452;11.494;2022-10-14T16:53:18;20.10;58.90
33564;DHT22;19894;48.452;11.494;2022-10-14T16:56:03;20.10;59.00
33564;DHT22;19894;48.452;11.494;2022-10-14T16:58:49;20.10;59.00
33564;DHT22;19894;48.452;11.494;2022-10-14T17:01:15;20.10;59.00
33564;DHT22;19894;48.452;11.494;2022-10-14T17:03:40;20.10;59.10
33564;DHT22;19894;48.452;11.494;2022-10-14T17:06:06;20.10;59.00
33564;DHT22;19894;48.452;11.494;2022-10-14T17:08:32;20.10;58.90
33564;DHT22;19894;48.452;11.494;2022-10-14T17:10:57;20.10;58.90
33564;DHT22;19894;48.452;11.494;2022-10-14T17:13:23;20.10;58.80
33564;DHT22;19894;48.452;11.494;2022-10-14T17:15:49;20.10;58.90
33564;DHT22;19894;48.452;11.494;2022-10-14T17:18:15;20.10;58.80
33564;DHT22;19894;48.452;11.494;2022-10-14T17:20:41;20.10;58.90
33564;DHT22;19894;48.452;11.494;2022-10-14T17:23:08;20.10;58.80
33564;DHT22;19894;48.452;11.494;2022-10-14T17:25:33;20.10;58.90
33564;DHT22;19894;48.452;11.494;2022-10-14T17:28:00;20.10;59.00
33564;DHT22;19894;48.452;11.494;2022-10-14T17:30:26;20.00;58.70
33564;DHT22;19894;48.452;11.494;2022-10-14T17:32:52;20.10;58.80
33564;DHT22;19894;48.452;11.494;2022-10-14T17:35:17;20.10;58.80
33564;DHT22;19894;48.452;11.494;2022-10-14T17:37:43;20.10;58.90
33564;DHT22;19894;48.452;11.494;2022-10-14T17:40:10;20.10;59.00
33564;DHT22;19894;48.452;11.494;2022-10-14T17:42:35;20.00;58.70
33564;DHT22;19894;48.452;11.494;2022-10-14T17:45:01;20.10;59.10
33564;DHT22;19894;48.452;11.494;2022-10-14T17:47:26;20.00;59.20
33564;DHT22;19894;48.452;11.494;2022-10-14T17:49:52;20.10;59.30
33564;DHT22;19894;48.452;11.494;2022-10-14T17:52:18;20.10;59.30
33564;DHT22;19894;48.452;11.494;2022-10-14T17:54:43;20.10;59.30
33564;DHT22;19894;48.452;11.494;2022-10-14T17:57:09;20.10;59.30
33564;DHT22;19894;48.452;11.494;2022-10-14T17:59:35;20.10;59.30